Time;durP1;ratioP1;P1;durP2;ratioP2;P2;SDS_P1;SDS_P2;PMS_P1;PMS_P2;Temp;Humidity;BMP_temperature;BMP_pressure;BME280_temperature;BME280_humidity;BME280_pressure;Samples;Min_cycle;Max_cycle;Signal;HPM_P1;HPM_P2
2022/04/06 00:00:45;;;;;;;3.67;3.38;;;;;;;13.72;54.48;94720.81;5030880;28;20030;-70
2022/04/06 00:03:11;;;;;;;3.45;3.15;;;;;;;13.45;54.50;94690.94;5030218;28;20037;-69
2022/04/06 00:05:36;;;;;;;3.40;3.10;;;;;;;13.58;54.42;94698.97;5029787;28;20040;-69
2022/04/06 00:08:02;;;;;;;3.40;3.08;;;;;;;14.01;54.45;94749.22;5031024;28;20021;-69
2022/04/06 00:10:29;;;;;;;3.97;3.67;;;;;;;12.88;55.81;94654.31;5030793;28;20045;-70
2022/04/06 00:12:55;;;;;;;4.07;3.67;;;;;;;13.22;54.90;94660.44;5029711;28;20124;-70
2022/04/06 00:15:20;;;;;;;3.85;3.40;;;;;;;13.13;56.55;94745.16;5030912;28;20115;-70
2022/04/06 00:17:46;;;;;;;4.45;4.05;;;;;;;13.57;55.56;94746.31;5029718;28;20572;-70
2022/04/06 00:20:12;;;;;;;6.60;4.03;;;;;;;13.40;55.96;94749.16;5030686;28;20033;-70
2022/04/06 00:22:39;;;;;;;3.63;3.33;;;;;;;12.92;57.27;94745.97;5030928;28;20437;-69
2022/04/06 00:25:05;;;;;;;3.92;3.63;;;;;;;13.46;56.05;94737.13;5031027;28;20137;-69
2022/04/06 00:27:31;;;;;;;4.30;3.90;;;;;;;13.41;54.71;94675.91;5030959;28;20029;-70
2022/04/06 00:29:56;;;;;;;4.22;3.90;;;;;;;13.39;55.16;94692.28;5031154;28;20025;-69
2022/04/06 00:32:21;;;;;;;4.95;4.45;;;;;;;13.34;54.59;94649.75;5030443;28;20108;-69
2022/04/06 00:37:30;;;;;;;4.05;3.65;;;;;;;13.56;54.29;94663.78;5039089;22;20100;-70
2022/04/06 00:39:56;;;;;;;4.63;4.22;;;;;;;14.16;53.79;94715.66;5009882;28;20038;-70
2022/04/06 00:42:21;;;;;;;4.50;4.10;;;;;;;13.70;54.34;94717.69;5010663;28;20030;-70
2022/04/06 00:44:47;;;;;;;4.85;4.45;;;;;;;13.55;54.67;94729.03;5011058;28;20135;-71
2022/04/06 00:47:12;;;;;;;4.40;4.05;;;;;;;13.37;55.13;94707.84;5009797;28;20475;-70
2022/04/06 00:49:37;;;;;;;5.13;4.63;;;;;;;12.96;56.42;94711.41;5009736;28;20067;-71
2022/04/06 00:52:05;;;;;;;5.20;4.70;;;;;;;12.95;57.17;94731.97;5010823;28;20030;-71
2022/04/06 00:54:31;;;;;;;5.13;4.28;;;;;;;12.48;58.19;94707.41;5010861;28;20109;-71
2022/04/06 00:56:57;;;;;;;5.97;4.82;;;;;;;12.56;58.46;94724.47;5014530;28;20478;-71
2022/04/06 00:59:26;;;;;;;5.60;5.10;;;;;;;12.96;56.88;94692.72;5013386;28;20037;-70
2022/04/06 01:01:52;;;;;;;5.43;4.93;;;;;;;13.10;56.89;94709.19;5014388;28;20025;-70
2022/04/06 01:04:18;;;;;;;5.30;4.80;;;;;;;12.89;56.74;94708.47;5014556;28;20022;-70
2022/04/06 01:06:44;;;;;;;5.07;4.63;;;;;;;13.27;56.31;94702.94;5014467;28;20026;-69
2022/04/06 01:09:10;;;;;;;6.32;5.07;;;;;;;12.82;57.14;94716.22;5014533;28;20760;-70
2022/04/06 01:11:36;;;;;;;4.70;4.30;;;;;;;12.93;56.14;94694.13;5014212;28;20026;-72
2022/04/06 01:14:02;;;;;;;5.40;4.90;;;;;;;13.34;56.32;94708.50;5013209;28;20037;-70
2022/04/06 01:16:29;;;;;;;5.30;4.78;;;;;;;13.31;55.37;94700.38;5013039;28;20033;-71
2022/04/06 01:18:54;;;;;;;5.13;4.70;;;;;;;13.65;54.70;94689.28;5014531;28;20156;-71
2022/04/06 01:21:21;;;;;;;5.05;4.63;;;;;;;12.96;56.63;94712.19;5013777;28;20053;-70
2022/04/06 01:23:47;;;;;;;5.45;4.95;;;;;;;12.95;56.89;94717.84;5014402;28;20406;-69
2022/04/06 01:26:13;;;;;;;5.22;4.82;;;;;;;12.69;57.49;94716.19;5014040;28;20030;-70
2022/04/06 01:28:40;;;;;;;5.25;4.75;;;;;;;13.11;56.29;94689.41;5014337;28;20047;-70
2022/04/06 01:31:06;;;;;;;4.70;4.30;;;;;;;13.10;56.53;94705.75;5013709;28;20022;-70
2022/04/06 01:33:31;;;;;;;5.18;4.78;;;;;;;12.70;57.45;94695.63;5014068;28;20046;-70
2022/04/06 01:35:58;;;;;;;5.30;4.90;;;;;;;13.32;56.58;94710.75;5012680;28;20065;-70
2022/04/06 01:38:24;;;;;;;5.88;4.70;;;;;;;13.02;56.87;94708.19;5012613;28;20025;-70
2022/04/06 01:40:50;;;;;;;4.80;4.40;;;;;;;12.78;57.21;94694.75;5013705;28;20073;-71
2022/04/06 01:43:16;;;;;;;5.50;5.00;;;;;;;12.73;57.26;94690.41;5013770;28;20812;-70
2022/04/06 01:45:41;;;;;;;5.93;4.70;;;;;;;12.94;56.71;94679.69;5013774;28;20035;-70
2022/04/06 01:48:07;;;;;;;5.10;4.60;;;;;;;13.18;56.27;94702.22;5013887;28;20022;-70
2022/04/06 01:53:16;;;;;;;5.20;4.68;;;;;;;13.50;55.72;94709.41;5013865;28;20040;-70
2022/04/06 01:55:42;;;;;;;5.32;4.82;;;;;;;13.36;54.96;94660.09;5013711;28;20030;-70
2022/04/06 01:58:08;;;;;;;5.35;4.95;;;;;;;13.73;54.84;94698.31;5013750;28;20034;-70
2022/04/06 02:00:33;;;;;;;5.43;4.93;;;;;;;13.76;54.79;94693.06;5013340;28;20057;-69
2022/04/06 02:03:00;;;;;;;5.53;5.13;;;;;;;13.30;55.21;94675.56;5013648;28;20105;-70
2022/04/06 02:05:31;;;;;;;5.25;4.85;;;;;;;13.59;55.00;94679.16;5013318;28;20030;-72
2022/04/06 02:07:57;;;;;;;10.55;5.18;;;;;;;13.08;56.29;94676.72;5012109;28;20437;-69
2022/04/06 02:10:22;;;;;;;6.65;5.30;;;;;;;13.75;54.99;94664.78;5012050;28;20021;-69
2022/04/06 02:12:48;;;;;;;5.35;4.85;;;;;;;13.77;54.18;94651.09;5013522;28;20022;-70
2022/04/06 02:15:15;;;;;;;6.32;5.82;;;;;;;13.63;53.45;94611.34;5013231;28;20030;-70
2022/04/06 02:17:42;;;;;;;5.45;4.95;;;;;;;14.03;53.44;94654.19;5011764;28;20030;-69
2022/04/06 02:20:08;;;;;;;5.65;5.05;;;;;;;14.12;53.24;94667.41;5013157;28;20036;-69
2022/04/06 02:22:33;;;;;;;5.25;4.85;;;;;;;13.86;53.22;94649.06;5011773;28;20375;-69
2022/04/06 02:24:59;;;;;;;5.28;4.78;;;;;;;13.47;55.31;94688.72;5013238;28;20033;-71
2022/04/06 02:27:24;;;;;;;5.60;5.10;;;;;;;13.47;55.06;94658.56;5012920;28;20057;-70
2022/04/06 02:29:50;;;;;;;5.88;5.15;;;;;;;13.58;54.58;94681.03;5013107;28;20372;-70
2022/04/06 02:32:15;;;;;;;6.40;5.55;;;;;;;13.62;55.27;94687.28;5012566;28;20172;-70
2022/04/06 02:34:40;;;;;;;6.50;5.35;;;;;;;13.33;55.05;94631.38;5012860;28;20026;-69
2022/04/06 02:37:08;;;;;;;5.68;5.18;;;;;;;13.58;54.83;94656.22;5012947;28;20039;-70
2022/04/06 02:39:34;;;;;;;6.97;5.70;;;;;;;14.00;54.38;94673.56;5012848;28;20100;-70
2022/04/06 02:41:59;;;;;;;6.20;5.57;;;;;;;13.89;53.71;94663.66;5012360;28;20057;-69
2022/04/06 02:44:25;;;;;;;6.00;5.43;;;;;;;14.08;53.85;94668.44;5012726;28;20093;-69
2022/04/06 02:46:50;;;;;;;5.75;5.30;;;;;;;13.96;53.88;94664.66;5011092;28;20025;-71
2022/04/06 02:49:17;;;;;;;6.05;5.55;;;;;;;13.71;54.20;94652.41;5011041;28;20025;-70
2022/04/06 02:51:42;;;;;;;5.38;4.88;;;;;;;13.74;54.56;94628.47;5012196;28;20026;-70
2022/04/06 02:54:08;;;;;;;5.47;4.97;;;;;;;14.03;54.10;94642.72;5012623;28;20056;-70
2022/04/06 02:56:33;;;;;;;6.45;5.38;;;;;;;14.11;53.77;94646.34;5011299;28;20040;-71
2022/04/06 02:59:00;;;;;;;5.50;5.00;;;;;;;13.97;54.06;94652.06;5011308;28;20040;-70
2022/04/06 03:01:25;;;;;;;6.30;4.93;;;;;;;13.84;53.72;94634.50;5012087;28;20109;-70
2022/04/06 03:03:50;;;;;;;5.93;5.18;;;;;;;13.79;53.79;94627.47;5011168;28;20061;-71
2022/04/06 03:06:16;;;;;;;5.88;4.85;;;;;;;13.80;53.84;94623.69;5010961;28;20487;-70
2022/04/06 03:08:42;;;;;;;4.63;4.13;;;;;;;13.72;54.19;94619.25;5012422;28;20501;-70
2022/04/06 03:11:08;;;;;;;5.03;4.63;;;;;;;13.70;54.12;94610.78;5012014;28;20026;-70
2022/04/06 03:13:33;;;;;;;4.95;4.45;;;;;;;13.65;54.21;94605.66;5012377;28;20482;-71
2022/04/06 03:15:59;;;;;;;4.40;4.00;;;;;;;13.73;54.39;94612.78;5012058;28;20379;-70
2022/04/06 03:18:24;;;;;;;4.15;3.75;;;;;;;13.72;54.36;94606.66;5011485;28;20037;-72
2022/04/06 03:20:49;;;;;;;4.47;3.30;;;;;;;13.78;54.34;94601.88;5010402;28;20626;-70
2022/04/06 03:23:15;;;;;;;3.67;3.38;;;;;;;13.31;54.83;94575.63;5012134;28;20425;-70
2022/04/06 03:25:41;;;;;;;3.90;3.50;;;;;;;13.49;55.04;94610.91;5011880;28;20014;-71
2022/04/06 03:28:07;;;;;;;3.47;3.17;;;;;;;13.30;54.85;94594.66;5010684;28;20482;-71
2022/04/06 03:30:32;;;;;;;3.70;3.38;;;;;;;12.91;56.08;94602.94;5011665;28;20045;-69
2022/04/06 03:32:57;;;;;;;3.40;3.20;;;;;;;12.66;57.03;94609.34;5010665;28;20209;-70
2022/04/06 03:35:23;;;;;;;3.95;3.65;;;;;;;12.65;57.04;94597.09;5011846;28;20046;-72
2022/04/06 03:37:50;;;;;;;5.20;4.22;;;;;;;12.86;56.86;94629.84;5011752;28;20026;-70
2022/04/06 03:40:15;;;;;;;4.00;3.65;;;;;;;12.88;56.28;94624.16;5010031;28;20057;-71
2022/04/06 03:42:41;;;;;;;4.40;4.10;;;;;;;12.65;56.91;94605.09;5011837;28;20046;-70
2022/04/06 03:45:07;;;;;;;5.68;4.07;;;;;;;12.31;56.70;94564.31;5011657;28;20033;-71
2022/04/06 03:47:34;;;;;;;6.53;5.20;;;;;;;12.68;56.86;94609.78;5011662;28;20029;-70
2022/04/06 03:50:00;;;;;;;5.15;4.65;;;;;;;12.74;56.86;94622.59;5011600;28;20030;-70
2022/04/06 03:52:29;;;;;;;7.65;4.40;;;;;;;12.68;56.97;94617.78;5011621;28;20072;-70
2022/04/06 03:54:55;;;;;;;5.07;4.55;;;;;;;12.56;57.00;94589.19;5011554;28;20033;-69
2022/04/06 03:57:21;;;;;;;6.05;5.05;;;;;;;12.57;57.00;94572.06;5010411;28;20029;-72
2022/04/06 03:59:46;;;;;;;5.95;4.85;;;;;;;12.91;56.82;94594.16;5011441;28;20030;-69
2022/04/06 04:02:12;;;;;;;5.45;4.38;;;;;;;13.06;56.63;94596.19;5011027;28;20030;-70
2022/04/06 04:04:37;;;;;;;4.68;3.95;;;;;;;13.11;56.19;94587.16;5011462;28;20029;-70
2022/04/06 04:07:03;;;;;;;7.63;4.40;;;;;;;13.19;56.04;94580.94;5011446;28;20124;-70
2022/04/06 04:09:29;;;;;;;4.82;4.43;;;;;;;13.49;55.87;94601.00;5010096;28;20113;-70
2022/04/06 04:11:56;;;;;;;5.78;4.15;;;;;;;13.44;55.92;94592.44;5009769;28;20038;-70
2022/04/06 04:14:22;;;;;;;5.07;4.03;;;;;;;13.53;55.37;94593.88;5011243;28;20053;-70
2022/04/06 04:16:48;;;;;;;4.65;4.25;;;;;;;13.47;55.22;94555.13;5011419;28;20033;-69
2022/04/06 04:19:13;;;;;;;5.05;4.55;;;;;;;13.70;54.92;94582.16;5011659;28;20019;-70
2022/04/06 04:21:38;;;;;;;5.13;4.68;;;;;;;13.77;54.89;94576.25;5010940;28;20030;-71
2022/04/06 04:24:08;;;;;;;4.65;4.22;;;;;;;13.85;54.82;94580.69;5011089;28;20041;-72
2022/04/06 04:26:34;;;;;;;6.07;4.32;;;;;;;13.81;54.35;94565.66;5011272;28;20026;-70
2022/04/06 04:29:00;;;;;;;4.70;4.30;;;;;;;13.83;54.37;94555.41;5009966;28;20034;-70
2022/04/06 04:31:25;;;;;;;7.53;3.85;;;;;;;14.03;53.95;94583.88;5012325;28;20022;-70
2022/04/06 04:33:51;;;;;;;4.30;3.90;;;;;;;13.95;54.04;94563.38;5015166;28;20422;-71
2022/04/06 04:36:17;;;;;;;3.42;3.13;;;;;;;14.05;53.98;94570.94;5013730;28;20037;-71
2022/04/06 04:38:43;;;;;;;3.90;3.22;;;;;;;13.88;54.23;94585.34;5015037;28;20463;-70
2022/04/06 04:41:08;;;;;;;3.60;3.40;;;;;;;14.03;54.05;94578.53;5014768;28;20034;-70
2022/04/06 04:43:37;;;;;;;4.13;2.83;;;;;;;13.76;53.94;94601.41;5015006;28;20443;-70
2022/04/06 04:46:04;;;;;;;3.40;3.10;;;;;;;13.47;54.84;94581.09;5013552;28;20037;-71
2022/04/06 04:48:29;;;;;;;3.47;2.92;;;;;;;12.99;55.34;94564.66;5013326;28;20501;-70
2022/04/06 04:50:55;;;;;;;3.47;3.17;;;;;;;13.59;54.79;94580.28;5014559;28;20022;-70
2022/04/06 04:53:20;;;;;;;3.88;3.22;;;;;;;13.33;55.63;94589.44;5013485;28;20026;-68
2022/04/06 04:55:46;;;;;;;3.55;2.78;;;;;;;13.32;55.51;94587.09;5013330;28;20030;-69
2022/04/06 04:58:11;;;;;;;4.18;3.00;;;;;;;13.55;54.83;94587.41;5014663;28;20032;-68
2022/04/06 05:00:37;;;;;;;3.63;3.08;;;;;;;13.87;54.24;94594.50;5012878;28;20080;-68
2022/04/06 05:03:05;;;;;;;3.72;2.53;;;;;;;13.71;54.01;94570.34;5014589;28;20378;-69
2022/04/06 05:05:31;;;;;;;2.83;2.63;;;;;;;13.94;53.48;94596.59;5013060;28;20475;-69
2022/04/06 05:07:59;;;;;;;2.92;2.72;;;;;;;14.29;53.19;94594.16;5013267;28;20053;-73
2022/04/06 05:10:25;;;;;;;2.90;2.60;;;;;;;14.19;52.82;94581.25;5012720;28;20081;-72
2022/04/06 05:12:52;;;;;;;2.90;2.60;;;;;;;13.82;52.88;94572.53;5013156;28;20525;-71
2022/04/06 05:15:18;;;;;;;2.85;2.65;;;;;;;13.83;53.02;94566.88;5014163;28;20375;-71
2022/04/06 05:17:44;;;;;;;3.55;3.15;;;;;;;14.03;53.22;94573.19;5014194;28;20639;-67
2022/04/06 05:20:10;;;;;;;3.17;2.88;;;;;;;14.09;52.93;94546.97;5013906;28;20101;-67
2022/04/06 05:22:36;;;;;;;3.42;3.13;;;;;;;14.46;53.06;94579.69;5013807;28;20478;-70
2022/04/06 05:25:04;;;;;;;4.18;3.03;;;;;;;14.73;52.86;94591.50;5013955;28;20649;-68
2022/04/06 05:27:31;;;;;;;3.53;3.22;;;;;;;14.66;52.25;94568.03;5014181;28;20041;-68
2022/04/06 05:29:57;;;;;;;4.25;3.30;;;;;;;14.52;52.07;94530.97;5014243;28;20088;-66
2022/04/06 05:32:22;;;;;;;4.38;3.70;;;;;;;14.78;51.93;94575.19;5012095;28;20022;-65
2022/04/06 05:34:48;;;;;;;3.83;3.13;;;;;;;14.26;51.99;94509.22;5013742;28;20498;-65
2022/04/06 05:37:14;;;;;;;3.88;3.40;;;;;;;14.96;51.84;94603.22;5013695;28;20022;-68
2022/04/06 05:39:39;;;;;;;3.75;3.45;;;;;;;13.99;52.34;94436.69;5012606;28;20030;-68
2022/04/06 05:42:04;;;;;;;3.60;3.30;;;;;;;15.21;51.95;94595.03;5012447;28;20049;-71
2022/04/06 05:44:30;;;;;;;3.88;3.58;;;;;;;15.42;51.31;94603.56;5013342;28;20044;-67
2022/04/06 05:46:55;;;;;;;3.63;3.30;;;;;;;15.54;50.55;94589.28;5013372;28;20076;-70
2022/04/06 05:49:21;;;;;;;3.58;3.28;;;;;;;15.72;50.45;94605.81;5013712;28;20022;-69
2022/04/06 05:51:46;;;;;;;3.65;3.35;;;;;;;15.59;49.85;94581.75;5013456;28;20034;-69
2022/04/06 05:54:11;;;;;;;4.00;3.70;;;;;;;15.48;49.95;94575.38;4995917;28;20022;-67
2022/04/06 05:56:37;;;;;;;4.93;3.53;;;;;;;15.62;49.92;94587.56;4996025;28;20091;-67
2022/04/06 05:59:02;;;;;;;3.50;3.20;;;;;;;15.65;49.63;94584.19;5018281;28;20466;-68
2022/04/06 06:01:28;;;;;;;3.17;2.92;;;;;;;15.57;49.79;94578.66;5032858;28;20038;-68
2022/04/06 06:03:53;;;;;;;3.80;3.28;;;;;;;15.53;49.50;94577.78;5032404;28;20410;-66
2022/04/06 06:06:18;;;;;;;3.67;3.38;;;;;;;15.58;49.81;94593.59;5032493;28;20033;-67
2022/04/06 06:08:44;;;;;;;4.10;3.75;;;;;;;15.48;50.43;94572.69;5032939;28;20025;-69
2022/04/06 06:11:10;;;;;;;3.90;3.60;;;;;;;15.51;50.15;94574.69;5014860;28;20045;-68
2022/04/06 06:13:35;;;;;;;4.38;3.58;;;;;;;15.79;50.16;94608.63;5032055;28;20053;-68
2022/04/06 06:16:01;;;;;;;5.32;3.80;;;;;;;15.85;49.97;94597.28;5033153;28;20018;-68
2022/04/06 06:18:27;;;;;;;4.28;3.42;;;;;;;15.97;49.67;94609.81;5033411;28;20030;-67
2022/04/06 06:20:53;;;;;;;5.60;3.55;;;;;;;16.04;49.51;94593.88;5033077;28;20017;-67
2022/04/06 06:23:19;;;;;;;4.47;3.80;;;;;;;16.13;49.67;94609.00;5032949;28;20028;-71
2022/04/06 06:25:44;;;;;;;4.57;3.75;;;;;;;16.13;49.28;94606.31;5015541;28;20021;-68
2022/04/06 06:28:10;;;;;;;4.57;4.10;;;;;;;16.00;49.55;94584.97;5032820;28;20026;-67
2022/04/06 06:30:35;;;;;;;5.68;3.78;;;;;;;16.01;49.65;94565.03;5031380;28;20112;-68
2022/04/06 06:33:00;;;;;;;3.33;3.10;;;;;;;16.39;49.47;94579.63;5032564;28;20100;-69
2022/04/06 06:35:26;;;;;;;2.65;2.45;;;;;;;16.70;48.61;94585.94;5032590;28;20378;-69
2022/04/06 06:37:56;;;;;;;3.08;2.80;;;;;;;17.07;48.36;94602.38;5014903;28;20398;-69
2022/04/06 06:40:27;;;;;;;2.42;2.22;;;;;;;17.30;47.76;94605.84;5014282;28;20390;-68
2022/04/06 06:42:53;;;;;;;3.60;2.20;;;;;;;17.31;47.20;94555.53;5032155;28;20025;-68
2022/04/06 06:45:19;;;;;;;2.35;1.98;;;;;;;17.92;46.53;94602.97;5031119;28;20028;-68
2022/04/06 06:47:45;;;;;;;2.40;1.75;;;;;;;18.04;45.75;94583.13;5032188;28;20112;-67
2022/04/06 06:50:12;;;;;;;1.92;1.83;;;;;;;18.41;45.25;94612.81;5031781;28;20025;-69
2022/04/06 06:52:38;;;;;;;1.98;1.88;;;;;;;18.45;44.68;94565.16;5032051;28;20041;-69
2022/04/06 06:55:05;;;;;;;2.15;1.60;;;;;;;18.84;43.80;94581.00;5032215;28;20026;-70
2022/04/06 06:57:31;;;;;;;1.92;1.83;;;;;;;18.94;43.61;94594.59;5032231;28;20022;-69
2022/04/06 06:59:57;;;;;;;1.92;1.80;;;;;;;18.87;42.88;94586.41;5013151;28;20025;-69
2022/04/06 07:02:23;;;;;;;2.38;1.77;;;;;;;19.07;43.03;94581.59;5031746;28;20084;-69
2022/04/06 07:04:49;;;;;;;3.20;2.05;;;;;;;19.35;42.86;94588.41;5032205;28;20049;-69
2022/04/06 07:07:14;;;;;;;2.10;2.00;;;;;;;19.18;41.19;94573.59;5031858;28;20035;-69
2022/04/06 07:09:40;;;;;;;1.98;1.77;;;;;;;19.18;41.58;94550.09;5031919;28;20036;-69
2022/04/06 07:12:06;;;;;;;2.10;1.73;;;;;;;19.29;41.29;94549.41;5031470;28;20021;-70
2022/04/06 07:14:32;;;;;;;2.13;1.92;;;;;;;19.63;41.32;94582.47;5030723;28;20021;-70
2022/04/06 07:16:58;;;;;;;2.50;2.30;;;;;;;18.68;41.34;94559.66;5031481;28;20543;-70
2022/04/06 07:19:24;;;;;;;2.85;2.60;;;;;;;17.56;44.33;94555.91;5031596;28;20029;-69
2022/04/06 07:21:49;;;;;;;2.42;2.20;;;;;;;18.61;43.74;94581.88;5031095;28;20108;-69
2022/04/06 07:24:15;;;;;;;3.33;2.13;;;;;;;18.91;42.83;94562.19;5031713;28;20057;-68
2022/04/06 07:26:41;;;;;;;2.25;2.05;;;;;;;19.04;42.54;94578.84;5031020;28;20513;-70
2022/04/06 07:29:09;;;;;;;3.55;2.95;;;;;;;18.65;42.54;94526.13;5031217;28;20025;-69
2022/04/06 07:31:35;;;;;;;2.60;2.40;;;;;;;18.52;42.37;94551.00;4994067;28;20029;-69
2022/04/06 07:34:01;;;;;;;2.70;2.50;;;;;;;18.59;42.95;94578.00;4994113;28;20022;-69
2022/04/06 07:36:27;;;;;;;2.95;2.67;;;;;;;18.17;44.25;94568.31;5011784;28;20091;-69
2022/04/06 07:38:52;;;;;;;3.35;2.78;;;;;;;15.88;47.76;94563.63;4993947;28;20053;-70
2022/04/06 07:41:18;;;;;;;3.50;3.20;;;;;;;17.07;46.54;94573.56;5011454;28;20065;-68
2022/04/06 07:43:44;;;;;;;3.67;3.30;;;;;;;17.28;45.82;94561.63;5011664;28;20025;-69
2022/04/06 07:46:10;;;;;;;3.28;3.00;;;;;;;17.35;46.12;94577.84;5026659;28;20041;-70
2022/04/06 07:48:35;;;;;;;3.72;3.28;;;;;;;17.77;45.24;94533.94;5031241;28;20033;-70
2022/04/06 07:51:02;;;;;;;4.68;3.60;;;;;;;15.67;49.25;94576.59;5031045;28;20048;-69
2022/04/06 07:53:27;;;;;;;4.50;4.18;;;;;;;15.27;50.22;94561.47;5031364;28;20052;-69
2022/04/06 07:55:52;;;;;;;4.13;3.83;;;;;;;14.85;51.86;94563.91;5013428;28;20642;-70
2022/04/06 07:58:18;;;;;;;4.40;4.00;;;;;;;15.36;50.79;94554.03;5031033;28;20033;-69
2022/04/06 08:00:44;;;;;;;3.90;3.60;;;;;;;16.56;48.48;94565.75;5012147;28;20419;-69
2022/04/06 08:03:10;;;;;;;4.20;3.90;;;;;;;16.99;46.43;94531.59;5031226;28;20021;-69
2022/04/06 08:05:35;;;;;;;3.90;3.60;;;;;;;16.92;46.02;94536.84;5030418;28;20048;-69
2022/04/06 08:08:01;;;;;;;4.40;3.80;;;;;;;17.28;46.17;94548.19;5030984;28;20083;-70
2022/04/06 08:10:30;;;;;;;4.10;3.60;;;;;;;17.55;45.60;94530.13;5013236;28;20498;-70
2022/04/06 08:12:55;;;;;;;3.92;3.63;;;;;;;18.72;44.04;94557.00;5013815;28;20414;-70
2022/04/06 08:15:20;;;;;;;3.78;3.47;;;;;;;18.14;43.41;94507.88;5030065;28;20083;-71
2022/04/06 08:17:47;;;;;;;6.13;3.45;;;;;;;17.78;44.30;94540.88;5013570;28;20068;-70
2022/04/06 08:20:13;;;;;;;4.30;4.00;;;;;;;16.03;47.48;94527.94;5030693;28;20030;-70
2022/04/06 08:22:49;;;;;;;4.25;3.95;;;;;;;16.37;47.75;94558.47;5013451;28;20029;-71
2022/04/06 08:25:36;;;;;;;4.47;4.07;;;;;;;16.72;46.74;94535.38;5031019;28;20462;-69
2022/04/06 08:28:01;;;;;;;6.53;4.75;;;;;;;15.19;50.22;94554.38;5010673;28;20069;-69
2022/04/06 08:30:26;;;;;;;5.80;4.47;;;;;;;15.93;48.76;94555.31;5029504;28;20452;-69
2022/04/06 08:32:58;;;;;;;9.93;4.13;;;;;;;17.05;47.08;94540.16;5013208;28;20029;-69
2022/04/06 08:35:27;;;;;;;4.15;3.85;;;;;;;15.74;49.11;94563.31;5031050;28;20433;-69
2022/04/06 08:37:52;;;;;;;4.32;3.90;;;;;;;15.49;48.81;94526.00;5030980;28;20040;-70
2022/04/06 08:40:20;;;;;;;4.93;4.50;;;;;;;15.36;50.18;94542.56;5030776;28;20029;-70
2022/04/06 08:42:47;;;;;;;4.60;4.10;;;;;;;15.30;49.50;94521.38;4996941;28;20067;-70
2022/04/06 08:45:12;;;;;;;4.10;3.70;;;;;;;15.34;50.06;94556.28;5012003;28;20556;-70
2022/04/06 08:47:39;;;;;;;4.80;4.40;;;;;;;15.90;49.37;94534.56;5013005;28;20037;-70
2022/04/06 08:50:05;;;;;;;4.75;4.28;;;;;;;15.46;49.54;94545.47;5030624;28;20108;-70
2022/04/06 08:52:35;;;;;;;6.65;3.70;;;;;;;16.27;48.50;94547.53;5030425;28;20091;-69
2022/04/06 08:55:01;;;;;;;5.15;3.83;;;;;;;15.55;49.50;94516.56;5030600;28;20025;-70
2022/04/06 08:57:27;;;;;;;4.93;4.25;;;;;;;15.72;49.12;94538.78;5012778;28;20033;-70
2022/04/06 08:59:53;;;;;;;4.85;4.13;;;;;;;15.69;49.53;94539.47;5030041;28;20022;-70
2022/04/06 09:02:20;;;;;;;5.30;4.20;;;;;;;14.82;51.65;94544.72;5011699;28;20018;-70
2022/04/06 09:04:55;;;;;;;6.25;4.32;;;;;;;15.34;50.26;94548.25;5030164;28;20556;-70
2022/04/06 09:07:23;;;;;;;4.38;4.03;;;;;;;15.17;50.37;94500.41;5029972;28;20037;-70
2022/04/06 09:09:53;;;;;;;4.60;4.28;;;;;;;14.99;50.79;94506.09;5030646;28;20033;-69
2022/04/06 09:12:20;;;;;;;5.53;4.43;;;;;;;15.66;49.53;94499.94;5030448;28;20026;-67
2022/04/06 09:14:47;;;;;;;7.40;4.10;;;;;;;15.58;49.63;94537.31;5030357;28;20147;-68
2022/04/06 09:17:18;;;;;;;5.13;3.95;;;;;;;16.25;48.10;94517.63;5014200;28;20029;-69
2022/04/06 09:19:49;;;;;;;3.83;3.53;;;;;;;16.63;46.79;94498.75;5016626;28;20488;-69
2022/04/06 09:22:15;;;;;;;4.20;3.80;;;;;;;16.34;46.66;94492.09;5033878;28;20836;-68
2022/04/06 09:24:41;;;;;;;3.35;3.15;;;;;;;16.45;47.14;94504.94;5033971;28;20264;-67
2022/04/06 09:27:06;;;;;;;4.38;3.13;;;;;;;16.82;45.79;94489.09;5034079;28;20136;-68
2022/04/06 09:29:34;;;;;;;4.55;3.60;;;;;;;15.90;46.62;94451.41;5034074;28;20466;-68
2022/04/06 09:32:10;;;;;;;4.10;3.00;;;;;;;16.72;46.71;94503.13;5032274;28;20037;-69
2022/04/06 09:34:37;;;;;;;3.78;3.05;;;;;;;17.35;44.60;94508.75;5033772;28;20021;-70
2022/04/06 09:37:38;;;;;;;2.97;2.75;;;;;;;17.73;43.64;94503.53;5016041;28;20025;-73
2022/04/06 09:40:08;;;;;;;3.00;2.65;;;;;;;19.21;42.28;94500.06;4933847;29;20043;-70
2022/04/06 09:42:34;;;;;;;3.53;3.10;;;;;;;19.52;40.01;94441.31;5015890;28;20064;-71
2022/04/06 09:47:51;;;;;;;4.25;3.53;;;;;;;18.63;41.08;94466.47;5033304;28;20448;-70
2022/04/06 09:50:26;;;;;;;3.97;3.55;;;;;;;18.58;42.66;94487.56;5015133;28;20033;-70
2022/04/06 09:52:53;;;;;;;4.05;3.72;;;;;;;17.01;45.95;94474.84;5015586;28;20470;-70
2022/04/06 09:55:20;;;;;;;5.00;3.40;;;;;;;18.98;42.41;94480.63;5033314;28;20374;-70
2022/04/06 09:57:53;;;;;;;4.20;3.78;;;;;;;18.25;43.38;94450.69;5015627;28;20385;-69
2022/04/06 10:00:27;;;;;;;4.32;3.67;;;;;;;18.09;43.41;94477.84;5032935;28;20021;-70
2022/04/06 10:03:06;;;;;;;4.45;4.07;;;;;;;19.39;40.97;94462.44;5012493;28;20030;-72
2022/04/06 10:05:35;;;;;;;6.28;3.83;;;;;;;20.23;39.69;94460.53;5014088;28;20518;-70
2022/04/06 10:08:02;;;;;;;3.67;3.38;;;;;;;19.51;40.08;94445.19;5014042;28;20022;-69
2022/04/06 10:10:28;;;;;;;4.28;3.88;;;;;;;19.46;40.23;94449.00;5012905;28;20033;-68
2022/04/06 10:12:56;;;;;;;4.20;3.88;;;;;;;17.01;44.58;94427.25;4995633;28;20049;-68
2022/04/06 10:15:24;;;;;;;3.63;3.20;;;;;;;18.77;41.81;94452.38;5013365;28;20026;-68
2022/04/06 10:17:49;;;;;;;5.32;3.22;;;;;;;17.81;42.85;94419.06;5012394;28;20056;-68
2022/04/06 10:20:36;;;;;;;4.18;2.92;;;;;;;17.03;45.05;94446.47;5012693;28;20061;-68
2022/04/06 10:23:19;;;;;;;3.22;2.92;;;;;;;17.03;44.86;94440.31;5012990;28;20029;-68
2022/04/06 10:25:57;;;;;;;3.75;3.15;;;;;;;17.35;44.26;94408.50;5013019;28;20050;-68
2022/04/06 10:28:22;;;;;;;3.92;2.80;;;;;;;17.23;44.37;94416.78;4994833;28;20050;-68
2022/04/06 10:31:19;;;;;;;3.53;2.40;;;;;;;18.33;41.91;94428.09;5012673;28;20706;-68
2022/04/06 10:33:46;;;;;;;4.55;2.58;;;;;;;17.50;43.25;94383.34;5014692;28;20049;-70
2022/04/06 10:36:32;;;;;;;3.28;2.97;;;;;;;17.29;43.15;94415.34;5032757;28;20040;-70
2022/04/06 10:39:04;;;;;;;4.38;2.30;;;;;;;16.87;44.68;94427.03;5033178;28;20038;-70
2022/04/06 10:41:30;;;;;;;;;;;;;;;17.49;43.29;94414.06;5015214;28;20033;-70
2022/04/06 10:43:56;;;;;;;3.88;3.22;;;;;;;16.72;43.86;94305.19;5014426;28;20019;-69
2022/04/06 10:46:38;;;;;;;3.67;3.05;;;;;;;17.36;43.03;94388.56;5023969;28;20030;-70
2022/04/06 10:49:06;;;;;;;2.92;2.63;;;;;;;17.22;43.27;94399.13;4993475;28;20105;-70
2022/04/06 10:51:37;;;;;;;3.10;2.90;;;;;;;18.37;41.20;94385.81;4993182;28;20034;-70
2022/04/06 10:54:11;;;;;;;2.70;2.50;;;;;;;18.60;40.73;94389.09;4993503;28;20049;-69
2022/04/06 10:56:49;;;;;;;3.22;2.35;;;;;;;17.14;42.49;94404.38;4975705;28;20454;-69
2022/04/06 10:59:16;;;;;;;6.35;2.42;;;;;;;17.99;41.01;94360.09;4975558;28;20033;-69
2022/04/06 11:01:45;;;;;;;1.88;1.77;;;;;;;18.33;40.33;94347.34;4999463;28;20105;-69
2022/04/06 11:04:22;;;;;;;2.42;2.00;;;;;;;17.99;40.05;94328.56;5012317;28;20026;-70
2022/04/06 11:06:57;;;;;;;1.67;1.58;;;;;;;17.58;40.60;94379.59;4994690;28;20030;-70
2022/04/06 11:12:30;;;;;;;1.93;1.70;;;;;;;17.84;39.71;94376.09;5012394;28;20060;-70
2022/04/06 11:14:59;;;;;;;1.63;1.52;;;;;;;18.05;39.51;94356.69;5012106;28;20471;-70
2022/04/06 11:17:45;;;;;;;1.85;1.38;;;;;;;19.23;37.81;94350.25;4993940;28;20034;-69
2022/04/06 11:20:15;;;;;;;1.83;1.73;;;;;;;19.60;37.17;94351.19;5011994;28;20017;-69
2022/04/06 11:22:53;;;;;;;1.70;1.60;;;;;;;19.15;37.00;94296.69;4994476;28;20083;-69
2022/04/06 11:25:20;;;;;;;2.50;2.00;;;;;;;17.71;40.38;94274.47;5012265;28;20021;-69
2022/04/06 11:27:46;;;;;;;3.70;1.85;;;;;;;18.24;39.77;94323.41;5011816;28;20503;-70
2022/04/06 11:30:17;;;;;;;2.38;1.80;;;;;;;19.14;38.32;94330.19;5011704;28;20030;-69
2022/04/06 11:32:50;;;;;;;2.25;2.10;;;;;;;18.37;40.50;94345.41;5005949;28;20114;-70
2022/04/06 11:35:16;;;;;;;2.75;1.67;;;;;;;17.20;39.36;94165.69;5014126;28;20025;-69
2022/04/06 11:37:47;;;;;;;2.63;1.40;;;;;;;17.95;39.44;94319.69;5031535;28;20684;-70
2022/04/06 11:40:15;;;;;;;2.20;1.20;;;;;;;18.59;38.40;94330.22;5030288;28;20025;-70
2022/04/06 11:42:41;;;;;;;1.33;1.15;;;;;;;17.78;39.31;94325.69;5013721;28;20506;-71
2022/04/06 11:45:07;;;;;;;1.42;1.05;;;;;;;17.68;39.55;94313.63;5031627;28;20040;-70